createdAt,value
2023-06-07T00:01:38.456Z,100097.25
2023-06-07T00:08:57.175Z,100102.00
2023-06-07T00:16:17.686Z,100090.31
2023-06-07T00:23:36.829Z,100095.22
2023-06-07T00:30:55.170Z,100096.63
2023-06-07T00:38:15.640Z,100093.16
2023-06-07T00:45:35.053Z,100097.09
2023-06-07T00:52:55.169Z,100113.69
2023-06-07T01:00:16.882Z,100113.06
2023-06-07T01:07:37.502Z,100109.81
2023-06-07T01:14:58.290Z,100099.16
2023-06-07T01:22:22.154Z,100098.94
2023-06-07T01:29:42.366Z,100105.09
2023-06-07T01:37:01.936Z,100105.31
2023-06-07T01:44:23.977Z,100093.84
2023-06-07T01:51:45.090Z,100095.69
2023-06-07T01:59:08.948Z,100105.13
2023-06-07T02:06:32.545Z,100101.63
2023-06-07T02:13:53.053Z,100097.13
2023-06-07T02:21:12.171Z,100096.72
2023-06-07T02:28:33.329Z,100092.41
2023-06-07T02:35:54.921Z,100101.41
2023-06-07T02:43:15.519Z,100109.00
2023-06-07T02:50:34.871Z,100105.72
2023-06-07T02:57:55.358Z,100111.66
2023-06-07T03:05:18.397Z,100118.00
2023-06-07T03:12:40.659Z,100113.72
2023-06-07T03:20:02.357Z,100128.22
2023-06-07T03:27:26.040Z,100131.31
2023-06-07T03:34:51.205Z,100142.56
2023-06-07T03:42:12.137Z,100147.28
2023-06-07T03:49:33.010Z,100155.25
2023-06-07T03:56:52.103Z,100155.25
2023-06-07T04:04:13.242Z,100159.56
2023-06-07T04:11:33.045Z,100152.38
2023-06-07T04:18:53.592Z,100157.50
2023-06-07T04:26:19.928Z,100154.25
2023-06-07T04:33:39.278Z,100151.38
2023-06-07T04:41:02.332Z,100148.53
2023-06-07T04:48:28.633Z,100148.31
2023-06-07T04:55:49.144Z,100137.88
2023-06-07T05:03:09.625Z,100129.69
2023-06-07T05:10:31.320Z,100133.56
2023-06-07T05:17:52.917Z,100137.25
2023-06-07T05:25:13.245Z,100137.66
2023-06-07T05:32:34.444Z,100161.00
2023-06-07T05:39:53.653Z,100161.41
2023-06-07T05:47:13.248Z,100163.47
2023-06-07T05:54:33.067Z,100167.75
2023-06-07T06:01:53.651Z,100170.66
2023-06-07T06:09:13.476Z,100172.25
2023-06-07T06:16:34.007Z,100177.19
2023-06-07T06:23:54.569Z,100179.84
2023-06-07T06:31:14.438Z,100173.28
2023-06-07T06:38:36.191Z,100169.13
2023-06-07T06:45:55.861Z,100171.81
2023-06-07T06:53:15.407Z,100181.41
2023-06-07T07:00:37.009Z,100178.00
2023-06-07T07:07:55.473Z,100181.19
2023-06-07T07:15:16.323Z,100177.50
2023-06-07T07:22:40.881Z,100176.59
2023-06-07T07:30:00.844Z,100191.38
2023-06-07T07:37:21.082Z,100185.06
2023-06-07T07:44:44.596Z,100198.25
2023-06-07T07:52:03.254Z,100197.28
2023-06-07T07:59:22.715Z,100200.50
2023-06-07T08:06:44.341Z,100193.22
2023-06-07T08:14:03.660Z,100202.22
2023-06-07T08:21:25.281Z,100194.53
2023-06-07T08:28:46.393Z,100195.09
2023-06-07T08:36:06.358Z,100192.22
2023-06-07T08:43:27.055Z,100193.66
2023-06-07T08:50:49.875Z,100190.84
2023-06-07T08:58:09.904Z,100185.75
2023-06-07T09:05:29.937Z,100190.19
2023-06-07T09:12:51.362Z,100181.78
2023-06-07T09:20:21.419Z,100183.63
2023-06-07T09:27:40.027Z,100186.22
2023-06-07T09:35:13.579Z,100174.50
2023-06-07T09:42:31.830Z,100159.38
2023-06-07T09:49:56.511Z,100157.94
2023-06-07T09:57:33.370Z,100153.81
2023-06-07T10:04:51.836Z,100143.38
2023-06-07T10:12:12.217Z,100138.47
2023-06-07T10:19:39.427Z,100136.50
2023-06-07T10:27:02.716Z,100131.00
2023-06-07T10:34:21.892Z,100121.06
2023-06-07T10:41:42.282Z,100113.59
2023-06-07T10:49:02.092Z,100102.59
2023-06-07T10:56:35.018Z,100085.81
2023-06-07T11:03:56.006Z,100092.19
2023-06-07T11:11:52.493Z,100087.94
2023-06-07T11:19:18.523Z,100083.97
2023-06-07T11:26:37.572Z,100083.56
2023-06-07T11:33:55.927Z,100088.63
2023-06-07T11:41:16.307Z,100082.88
2023-06-07T11:48:36.640Z,100092.56
2023-06-07T11:55:58.428Z,100072.38
2023-06-07T12:03:21.397Z,100056.94
2023-06-07T12:10:41.349Z,100052.94
2023-06-07T12:18:04.417Z,100053.97
2023-06-07T12:25:27.496Z,100044.13
2023-06-07T12:32:48.216Z,100048.75
2023-06-07T12:40:09.718Z,100058.13
2023-06-07T12:47:29.925Z,100055.44
2023-06-07T12:54:48.706Z,100053.88
2023-06-07T13:02:08.693Z,100037.09
2023-06-07T13:09:31.287Z,100038.34
2023-06-07T13:16:51.083Z,100033.31
2023-06-07T13:24:09.765Z,100018.81
2023-06-07T13:31:29.751Z,100019.13
2023-06-07T13:38:50.218Z,100018.00
2023-06-07T13:46:08.730Z,100014.97
2023-06-07T13:53:32.129Z,100011.63
2023-06-07T14:00:51.004Z,100002.56
2023-06-07T14:08:09.983Z,100007.75
2023-06-07T14:15:30.271Z,100008.13
2023-06-07T14:22:50.134Z,99994.75
2023-06-07T14:30:10.581Z,100005.13
2023-06-07T14:37:31.196Z,99999.34
2023-06-07T14:44:50.426Z,100000.97
2023-06-07T14:52:09.739Z,100001.22
2023-06-07T14:59:29.493Z,99990.53
2023-06-07T15:06:51.127Z,99994.59
2023-06-07T15:14:11.859Z,99979.75
2023-06-07T15:21:32.439Z,99985.25
2023-06-07T15:28:50.793Z,99976.41
2023-06-07T15:36:09.140Z,99978.88
2023-06-07T15:43:29.632Z,99969.75
2023-06-07T15:50:48.997Z,99961.13
2023-06-07T15:58:08.236Z,99952.38
2023-06-07T16:05:28.904Z,99969.94
2023-06-07T16:12:49.657Z,99961.31
2023-06-07T16:20:11.159Z,99967.25
2023-06-07T16:27:31.820Z,99984.34
2023-06-07T16:34:50.046Z,99990.78
2023-06-07T16:42:08.407Z,99981.56
2023-06-07T16:49:28.828Z,99986.06
2023-06-07T16:56:47.750Z,99978.00
2023-06-07T17:04:06.710Z,99972.78
2023-06-07T17:11:27.926Z,99980.91
2023-06-07T17:18:47.023Z,99984.75
2023-06-07T17:26:06.149Z,99983.94
2023-06-07T17:33:26.805Z,99996.19
2023-06-07T17:40:45.242Z,100011.66
2023-06-07T17:48:04.273Z,100014.03
2023-06-07T17:55:24.088Z,100026.72
2023-06-07T18:02:42.500Z,100016.41
2023-06-07T18:10:01.028Z,100025.41
2023-06-07T18:17:22.335Z,100018.09
2023-06-07T18:24:40.961Z,100015.44
2023-06-07T18:31:59.260Z,100038.31
2023-06-07T18:39:19.474Z,100040.72
2023-06-07T18:46:37.852Z,100045.09
2023-06-07T18:53:57.026Z,100039.38
2023-06-07T19:01:17.353Z,100041.97
2023-06-07T19:08:36.422Z,100047.84
2023-06-07T19:15:55.828Z,100045.28
2023-06-07T19:23:16.877Z,100053.63
2023-06-07T19:30:35.346Z,100057.00
2023-06-07T19:37:53.985Z,100066.72
2023-06-07T19:45:13.968Z,100065.09
2023-06-07T19:52:32.598Z,100072.63
2023-06-07T19:59:51.891Z,100067.78
2023-06-07T20:07:12.340Z,100069.22
2023-06-07T20:14:31.706Z,100066.16
2023-06-07T20:21:50.023Z,100073.25
2023-06-07T20:29:14.529Z,100069.03
2023-06-07T20:36:33.452Z,100079.72
2023-06-07T20:43:51.850Z,100057.00
2023-06-07T20:51:12.632Z,100062.28
2023-06-07T20:58:32.032Z,100071.31
2023-06-07T21:05:50.725Z,100070.88
2023-06-07T21:13:10.769Z,100072.69
2023-06-07T21:20:29.600Z,100076.50
2023-06-07T21:27:48.490Z,100078.97
2023-06-07T21:35:09.581Z,100080.50
2023-06-07T21:42:28.014Z,100088.34
2023-06-07T21:49:46.955Z,100094.34
2023-06-07T21:57:07.910Z,100091.50
2023-06-07T22:04:26.312Z,100086.84
2023-06-07T22:11:45.801Z,100084.66
2023-06-07T22:19:06.227Z,100078.59
2023-06-07T22:26:25.659Z,100064.59
2023-06-07T22:33:44.195Z,100084.34
2023-06-07T22:41:04.778Z,100083.69
2023-06-07T22:48:24.819Z,100076.56
2023-06-07T22:55:43.634Z,100065.78
2023-06-07T23:03:03.849Z,100068.25
2023-06-07T23:10:28.441Z,100067.19
2023-06-07T23:17:47.162Z,100071.75
2023-06-07T23:25:08.273Z,100080.66
2023-06-07T23:32:26.743Z,100074.78
2023-06-07T23:39:44.956Z,100070.50
2023-06-07T23:47:05.339Z,100065.91
2023-06-07T23:54:24.421Z,100053.69
